createdAt,value
2022-11-27T09:51:56.748Z,19.08
2022-11-27T09:55:53.284Z,16.52
2022-11-27T09:59:50.984Z,17.10
2022-11-27T10:03:45.671Z,18.20
2022-11-27T10:07:46.204Z,16.95
2022-11-27T10:11:54.964Z,20.48
2022-11-27T10:16:01.534Z,21.88
2022-11-27T10:20:23.562Z,21.50
2022-11-27T10:24:28.044Z,18.38
2022-11-27T10:28:44.213Z,17.42
2022-11-27T10:36:51.515Z,22.65
2022-11-27T10:40:49.398Z,19.25
2022-11-27T10:44:55.429Z,17.88
2022-11-27T10:48:48.055Z,19.23
2022-11-27T10:52:55.649Z,21.52
2022-11-27T10:57:16.224Z,20.40
2022-11-27T11:01:11.970Z,21.77
2022-11-27T11:05:37.649Z,23.08
2022-11-27T11:09:35.903Z,20.67
2022-11-27T11:13:33.514Z,22.63
2022-11-27T11:17:30.814Z,22.27
2022-11-27T11:21:29.244Z,21.23
2022-11-27T11:25:22.137Z,24.27
2022-11-27T11:29:24.099Z,22.60
2022-11-27T11:33:17.118Z,22.83
2022-11-27T11:37:20.609Z,23.48
2022-11-27T11:41:18.176Z,22.95
2022-11-27T11:45:11.016Z,26.77
2022-11-27T11:49:27.581Z,26.15
2022-11-27T11:53:44.524Z,25.35
2022-11-27T11:57:39.992Z,23.83
2022-11-27T12:01:39.008Z,23.30
2022-11-27T12:05:53.996Z,22.67
2022-11-27T12:10:14.759Z,25.27
2022-11-27T12:14:17.474Z,27.00
2022-11-27T12:18:26.514Z,31.35
2022-11-27T12:22:38.037Z,26.80
2022-11-27T12:26:53.851Z,28.02
2022-11-27T12:30:52.650Z,26.83
2022-11-27T12:35:12.808Z,29.35
2022-11-27T12:39:18.875Z,40.30
2022-11-27T12:43:24.914Z,39.42
2022-11-27T12:47:26.959Z,37.53
2022-11-27T12:51:46.874Z,35.67
2022-11-27T12:55:44.964Z,30.20
2022-11-27T13:00:01.046Z,32.90
2022-11-27T13:04:06.242Z,34.38
2022-11-27T13:08:03.292Z,31.30
2022-11-27T13:11:57.177Z,30.40
2022-11-27T13:16:29.330Z,28.10
2022-11-27T13:20:30.340Z,28.23
2022-11-27T13:24:25.453Z,23.98
2022-11-27T13:28:44.347Z,25.23
2022-11-27T13:32:49.583Z,25.92
2022-11-27T13:36:45.390Z,26.85
2022-11-27T13:40:44.133Z,28.35
2022-11-27T13:44:42.721Z,33.33
2022-11-27T13:48:39.455Z,29.25
2022-11-27T13:52:32.748Z,29.52
2022-11-27T13:56:31.443Z,58.85
2022-11-27T14:00:50.480Z,34.70
2022-11-27T14:04:56.169Z,29.80
2022-11-27T14:09:00.649Z,27.55
2022-11-27T14:12:57.636Z,28.25
2022-11-27T14:16:59.350Z,28.00
2022-11-27T14:20:56.746Z,26.13
2022-11-27T14:24:56.086Z,27.17
2022-11-27T14:28:55.893Z,35.85
2022-11-27T14:32:49.833Z,32.47
2022-11-27T14:36:42.704Z,32.05
2022-11-27T14:40:35.834Z,30.17
2022-11-27T14:44:29.954Z,29.90
2022-11-27T14:48:28.947Z,31.13
2022-11-27T14:52:22.323Z,31.33
2022-11-27T14:56:16.224Z,33.30
2022-11-27T15:00:24.407Z,31.08
2022-11-27T15:04:37.767Z,29.77
2022-11-27T15:08:35.003Z,30.05
2022-11-27T15:12:34.638Z,29.67
2022-11-27T15:16:31.349Z,28.98
2022-11-27T15:20:38.848Z,24.90
2022-11-27T15:24:39.750Z,26.67
2022-11-27T15:28:50.413Z,30.40
2022-11-27T15:32:52.094Z,35.75
2022-11-27T15:36:51.984Z,34.47
2022-11-27T15:40:44.685Z,34.03
2022-11-27T15:44:39.071Z,32.90
2022-11-27T15:48:31.769Z,32.00
2022-11-27T15:52:25.238Z,34.45
2022-11-27T15:56:18.247Z,33.55
2022-11-27T16:00:12.462Z,34.70
2022-11-27T16:04:06.334Z,32.63
2022-11-27T16:07:58.935Z,34.83
2022-11-27T16:11:52.570Z,36.63
2022-11-27T16:15:45.934Z,35.00
2022-11-27T16:19:39.103Z,34.58
2022-11-27T16:23:32.850Z,36.10
2022-11-27T16:27:25.279Z,39.10
2022-11-27T16:31:18.599Z,44.58
2022-11-27T16:35:11.806Z,42.22
2022-11-27T16:39:05.273Z,41.60
2022-11-27T16:42:58.658Z,40.88
2022-11-27T16:46:51.784Z,38.20
2022-11-27T16:50:44.631Z,35.00
2022-11-27T16:54:38.274Z,33.30
2022-11-27T16:58:35.817Z,32.15
2022-11-27T17:02:29.433Z,35.00
2022-11-27T17:06:26.127Z,37.17
2022-11-27T17:10:18.790Z,41.70
2022-11-27T17:14:12.327Z,54.38
2022-11-27T17:18:05.119Z,45.90
2022-11-27T17:22:00.382Z,35.33
2022-11-27T17:25:53.579Z,28.48
2022-11-27T17:29:46.541Z,29.05
2022-11-27T17:33:39.301Z,33.10
2022-11-27T17:37:32.313Z,29.30
2022-11-27T17:41:27.152Z,24.15
2022-11-27T17:45:20.373Z,25.08
2022-11-27T17:49:12.826Z,25.70
2022-11-27T17:53:05.967Z,25.10
2022-11-27T17:56:58.900Z,24.92
2022-11-27T18:00:51.988Z,21.23
2022-11-27T18:04:45.714Z,20.70
2022-11-27T18:08:38.981Z,22.55
2022-11-27T18:12:31.536Z,25.73
2022-11-27T18:16:29.554Z,25.55
2022-11-27T18:20:22.724Z,22.33
2022-11-27T18:24:23.133Z,18.90
2022-11-27T18:28:16.719Z,19.75
2022-11-27T18:32:10.322Z,19.65
2022-11-27T18:36:04.900Z,22.73
2022-11-27T18:39:58.172Z,24.05
2022-11-27T18:43:52.366Z,19.63
2022-11-27T18:47:45.719Z,17.48
2022-11-27T18:51:38.856Z,16.02
2022-11-27T18:55:36.036Z,17.48
2022-11-27T18:59:32.299Z,17.52
2022-11-27T19:03:25.390Z,16.40
2022-11-27T19:07:19.844Z,17.15
2022-11-27T19:11:24.244Z,15.25
2022-11-27T19:15:17.395Z,17.15
2022-11-27T19:19:49.334Z,17.17
2022-11-27T19:23:23.947Z,19.65
2022-11-27T19:27:18.067Z,20.58
2022-11-27T19:31:14.123Z,27.73
2022-11-27T19:35:09.830Z,22.70
2022-11-27T19:39:08.625Z,17.08
2022-11-27T19:43:01.837Z,15.57
2022-11-27T19:46:55.061Z,16.17
2022-11-27T19:50:48.479Z,15.18
2022-11-27T19:54:41.602Z,16.13
2022-11-27T19:58:35.213Z,15.27
2022-11-27T20:02:31.465Z,17.08
2022-11-27T20:06:27.058Z,16.10
2022-11-27T20:10:22.613Z,14.13
2022-11-27T20:14:16.491Z,14.00
2022-11-27T20:18:11.003Z,13.43
2022-11-27T20:22:04.860Z,13.32
2022-11-27T20:25:58.370Z,12.70
2022-11-27T20:29:55.221Z,13.00
2022-11-27T20:33:49.315Z,13.90
2022-11-27T20:37:44.469Z,13.48
2022-11-27T20:41:42.404Z,15.23
2022-11-27T20:45:40.233Z,13.32
2022-11-27T20:49:35.911Z,13.77
2022-11-27T20:53:29.848Z,15.18
2022-11-27T20:57:23.142Z,15.27
2022-11-27T21:01:19.536Z,16.35
2022-11-27T21:05:12.520Z,27.88
2022-11-27T21:09:08.168Z,21.70
2022-11-27T21:13:01.757Z,15.90
2022-11-27T21:16:58.023Z,16.13
2022-11-27T21:20:55.192Z,15.48
2022-11-27T21:24:52.281Z,15.45
2022-11-27T21:28:46.473Z,19.52
2022-11-27T21:32:39.673Z,22.25
2022-11-27T21:36:36.528Z,22.38
2022-11-27T21:40:29.718Z,18.92
2022-11-27T21:44:24.643Z,21.50
2022-11-27T21:48:21.183Z,18.63
2022-11-27T21:52:14.498Z,17.97
2022-11-27T21:56:08.388Z,17.15
2022-11-27T22:04:26.748Z,16.27
2022-11-27T22:08:37.285Z,21.73
2022-11-27T22:12:29.698Z,21.13
2022-11-27T22:16:25.146Z,21.48
2022-11-27T22:20:18.026Z,17.90
2022-11-27T22:24:16.742Z,18.08
2022-11-27T22:28:11.239Z,19.98
2022-11-27T22:32:04.068Z,19.73
2022-11-27T22:35:56.402Z,20.45
2022-11-27T22:39:48.952Z,21.20
2022-11-27T22:43:42.343Z,20.80
2022-11-27T22:47:34.766Z,20.92
2022-11-27T22:51:29.437Z,20.90
2022-11-27T22:55:22.156Z,22.52
2022-11-27T22:59:32.751Z,21.55
2022-11-27T23:03:26.667Z,20.25
2022-11-27T23:07:25.020Z,21.50
2022-11-27T23:11:26.134Z,20.05
2022-11-27T23:15:18.914Z,20.08
2022-11-27T23:19:11.940Z,22.00
2022-11-27T23:23:04.480Z,21.00
2022-11-27T23:26:57.143Z,20.63
2022-11-27T23:31:03.138Z,19.52
2022-11-27T23:35:02.534Z,19.00
2022-11-27T23:38:55.078Z,19.45
2022-11-27T23:42:47.702Z,21.13
2022-11-27T23:46:40.865Z,19.33
2022-11-27T23:50:33.395Z,20.17
2022-11-27T23:54:26.083Z,20.50
2022-11-27T23:58:18.514Z,19.52
